Aéroport d'Albi - Le Séquestre

20/02/2019
OBS MET LFCI:200700Z 08002KT CAVOK 01/00 Q1023=
20/02/19 07h18 - *la nébulosité est estimée par l'AFIS et par conséquent non certifiée.

PHOTOS